sensor_id;sensor_type;location;lat;lon;timestamp;pressure;altitude;pressure_sealevel;temperature;humidity
54882;BME280;40775;51.448;4.742;2023-08-21T00:01:58;102198.44;;;22.40;100.00
54882;BME280;40775;51.448;4.742;2023-08-21T00:04:25;102177.91;;;22.40;100.00
54882;BME280;40775;51.448;4.742;2023-08-21T00:06:52;102180.63;;;22.34;100.00
54882;BME280;40775;51.448;4.742;2023-08-21T00:09:19;102183.41;;;22.22;100.00
54882;BME280;40775;51.448;4.742;2023-08-21T00:11:46;102183.41;;;22.16;100.00
54882;BME280;40775;51.448;4.742;2023-08-21T00:14:13;102183.41;;;22.20;100.00
54882;BME280;40775;51.448;4.742;2023-08-21T00:16:40;102177.16;;;22.17;100.00
54882;BME280;40775;51.448;4.742;2023-08-21T00:19:07;102187.00;;;22.13;100.00
54882;BME280;40775;51.448;4.742;2023-08-21T00:21:34;102186.09;;;22.14;100.00
54882;BME280;40775;51.448;4.742;2023-08-21T00:24:01;102185.25;;;22.11;100.00
54882;BME280;40775;51.448;4.742;2023-08-21T00:26:28;102175.47;;;22.07;100.00
54882;BME280;40775;51.448;4.742;2023-08-21T00:28:55;102171.03;;;22.00;100.00
54882;BME280;40775;51.448;4.742;2023-08-21T00:31:22;102160.31;;;22.01;100.00
54882;BME280;40775;51.448;4.742;2023-08-21T00:33:49;102154.09;;;21.96;100.00
54882;BME280;40775;51.448;4.742;2023-08-21T00:36:17;102158.56;;;21.96;100.00
54882;BME280;40775;51.448;4.742;2023-08-21T00:38:46;102159.50;;;21.84;100.00
54882;BME280;40775;51.448;4.742;2023-08-21T00:41:14;102163.97;;;21.82;100.00
54882;BME280;40775;51.448;4.742;2023-08-21T00:43:41;102166.69;;;21.77;100.00
54882;BME280;40775;51.448;4.742;2023-08-21T00:46:08;102185.44;;;21.71;100.00
54882;BME280;40775;51.448;4.742;2023-08-21T00:48:35;102178.34;;;21.64;100.00
54882;BME280;40775;51.448;4.742;2023-08-21T00:51:03;102182.78;;;21.65;100.00
54882;BME280;40775;51.448;4.742;2023-08-21T00:53:30;102181.00;;;21.64;100.00
54882;BME280;40775;51.448;4.742;2023-08-21T00:55:58;102186.34;;;21.67;100.00
54882;BME280;40775;51.448;4.742;2023-08-21T00:58:25;102183.66;;;21.67;100.00
54882;BME280;40775;51.448;4.742;2023-08-21T01:00:52;102186.34;;;21.67;100.00
54882;BME280;40775;51.448;4.742;2023-08-21T01:03:20;102172.09;;;21.60;100.00
54882;BME280;40775;51.448;4.742;2023-08-21T01:05:47;102174.78;;;21.56;100.00
54882;BME280;40775;51.448;4.742;2023-08-21T01:08:40;102178.38;;;21.52;100.00
54882;BME280;40775;51.448;4.742;2023-08-21T01:11:25;102175.69;;;21.50;100.00
54882;BME280;40775;51.448;4.742;2023-08-21T01:14:13;102179.25;;;21.51;100.00
54882;BME280;40775;51.448;4.742;2023-08-21T01:16:44;102172.16;;;21.47;100.00
54882;BME280;40775;51.448;4.742;2023-08-21T01:19:37;102178.38;;;21.49;100.00
54882;BME280;40775;51.448;4.742;2023-08-21T01:22:04;102174.88;;;21.38;100.00
54882;BME280;40775;51.448;4.742;2023-08-21T01:24:32;102176.59;;;21.49;100.00
54882;BME280;40775;51.448;4.742;2023-08-21T01:27:00;102177.50;;;21.44;100.00
54882;BME280;40775;51.448;4.742;2023-08-21T01:29:28;102170.41;;;21.40;100.00
54882;BME280;40775;51.448;4.742;2023-08-21T01:35:20;102175.75;;;21.18;100.00
54882;BME280;40775;51.448;4.742;2023-08-21T01:37:48;102173.97;;;21.22;100.00
54882;BME280;40775;51.448;4.742;2023-08-21T01:40:23;102174.88;;;21.19;100.00
54882;BME280;40775;51.448;4.742;2023-08-21T01:42:53;102189.13;;;21.18;100.00
54882;BME280;40775;51.448;4.742;2023-08-21T01:45:21;102190.00;;;21.20;100.00
54882;BME280;40775;51.448;4.742;2023-08-21T01:47:49;102200.69;;;21.16;100.00
54882;BME280;40775;51.448;4.742;2023-08-21T01:50:16;102193.59;;;21.13;100.00
54882;BME280;40775;51.448;4.742;2023-08-21T01:52:43;102192.69;;;21.11;100.00
54882;BME280;40775;51.448;4.742;2023-08-21T01:55:10;102196.25;;;21.09;100.00
54882;BME280;40775;51.448;4.742;2023-08-21T01:57:38;102190.91;;;21.04;100.00
54882;BME280;40775;51.448;4.742;2023-08-21T02:00:06;102198.91;;;21.06;100.00
54882;BME280;40775;51.448;4.742;2023-08-21T02:02:34;102193.56;;;21.06;100.00
54882;BME280;40775;51.448;4.742;2023-08-21T02:05:01;102196.25;;;20.98;100.00
54882;BME280;40775;51.448;4.742;2023-08-21T02:07:30;102194.47;;;21.00;100.00
54882;BME280;40775;51.448;4.742;2023-08-21T02:09:57;102195.38;;;20.93;100.00
54882;BME280;40775;51.448;4.742;2023-08-21T02:12:24;102198.94;;;20.90;100.00
54882;BME280;40775;51.448;4.742;2023-08-21T02:14:51;102185.59;;;20.87;100.00
54882;BME280;40775;51.448;4.742;2023-08-21T02:17:18;102188.25;;;20.81;100.00
54882;BME280;40775;51.448;4.742;2023-08-21T02:19:44;102200.72;;;20.81;100.00
54882;BME280;40775;51.448;4.742;2023-08-21T02:22:11;102201.63;;;20.83;100.00
54882;BME280;40775;51.448;4.742;2023-08-21T02:24:38;102194.47;;;20.80;100.00
54882;BME280;40775;51.448;4.742;2023-08-21T02:27:05;102202.50;;;20.80;100.00
54882;BME280;40775;51.448;4.742;2023-08-21T02:29:32;102202.50;;;20.76;100.00
54882;BME280;40775;51.448;4.742;2023-08-21T02:31:59;102196.25;;;20.80;100.00
54882;BME280;40775;51.448;4.742;2023-08-21T02:34:26;102192.72;;;20.72;100.00
54882;BME280;40775;51.448;4.742;2023-08-21T02:36:53;102198.06;;;20.75;100.00
54882;BME280;40775;51.448;4.742;2023-08-21T02:39:20;102202.50;;;20.71;100.00
54882;BME280;40775;51.448;4.742;2023-08-21T02:41:47;102199.84;;;20.66;100.00
54882;BME280;40775;51.448;4.742;2023-08-21T02:44:14;102201.63;;;20.66;100.00
54882;BME280;40775;51.448;4.742;2023-08-21T02:46:41;102198.06;;;20.65;100.00
54882;BME280;40775;51.448;4.742;2023-08-21T02:49:08;102198.97;;;20.60;100.00
54882;BME280;40775;51.448;4.742;2023-08-21T02:51:35;102198.94;;;20.64;100.00
54882;BME280;40775;51.448;4.742;2023-08-21T02:54:02;102201.63;;;20.61;100.00
54882;BME280;40775;51.448;4.742;2023-08-21T02:56:29;102203.41;;;20.64;100.00
54882;BME280;40775;51.448;4.742;2023-08-21T02:58:56;102200.72;;;20.62;100.00
54882;BME280;40775;51.448;4.742;2023-08-21T03:01:23;102198.06;;;20.59;100.00
54882;BME280;40775;51.448;4.742;2023-08-21T03:03:50;102203.41;;;20.55;100.00
54882;BME280;40775;51.448;4.742;2023-08-21T03:06:17;102199.81;;;20.53;100.00
54882;BME280;40775;51.448;4.742;2023-08-21T03:08:44;102195.38;;;20.53;100.00
54882;BME280;40775;51.448;4.742;2023-08-21T03:11:11;102194.47;;;20.53;100.00
54882;BME280;40775;51.448;4.742;2023-08-21T03:13:38;102206.94;;;20.49;100.00
54882;BME280;40775;51.448;4.742;2023-08-21T03:16:06;102208.72;;;20.50;100.00
54882;BME280;40775;51.448;4.742;2023-08-21T03:18:54;102200.69;;;20.43;100.00
54882;BME280;40775;51.448;4.742;2023-08-21T03:21:22;102208.72;;;20.46;100.00
54882;BME280;40775;51.448;4.742;2023-08-21T03:23:58;102208.72;;;20.41;100.00
54882;BME280;40775;51.448;4.742;2023-08-21T03:26:31;102219.38;;;20.41;100.00
54882;BME280;40775;51.448;4.742;2023-08-21T03:28:58;102214.94;;;20.42;100.00
54882;BME280;40775;51.448;4.742;2023-08-21T03:31:25;102206.94;;;20.46;100.00
54882;BME280;40775;51.448;4.742;2023-08-21T03:33:52;102208.72;;;20.43;100.00
54882;BME280;40775;51.448;4.742;2023-08-21T03:36:20;102205.16;;;20.41;100.00
54882;BME280;40775;51.448;4.742;2023-08-21T03:38:47;102203.34;;;20.32;100.00
54882;BME280;40775;51.448;4.742;2023-08-21T03:41:14;102198.88;;;20.35;100.00
54882;BME280;40775;51.448;4.742;2023-08-21T03:43:40;102199.78;;;20.30;100.00
54882;BME280;40775;51.448;4.742;2023-08-21T03:46:07;102194.41;;;20.25;100.00
54882;BME280;40775;51.448;4.742;2023-08-21T03:48:34;102201.50;;;20.19;100.00
54882;BME280;40775;51.448;4.742;2023-08-21T03:51:02;102200.63;;;20.18;100.00
54882;BME280;40775;51.448;4.742;2023-08-21T03:53:29;102202.41;;;20.15;100.00
54882;BME280;40775;51.448;4.742;2023-08-21T03:55:56;102208.63;;;20.14;100.00
54882;BME280;40775;51.448;4.742;2023-08-21T03:58:23;102211.28;;;20.09;100.00
54882;BME280;40775;51.448;4.742;2023-08-21T04:00:55;102207.72;;;20.07;100.00
54882;BME280;40775;51.448;4.742;2023-08-21T04:03:22;102210.38;;;20.02;100.00
54882;BME280;40775;51.448;4.742;2023-08-21T04:05:49;102209.47;;;20.00;100.00
54882;BME280;40775;51.448;4.742;2023-08-21T04:08:16;102213.94;;;20.01;100.00
54882;BME280;40775;51.448;4.742;2023-08-21T04:10:43;102219.25;;;20.00;100.00
54882;BME280;40775;51.448;4.742;2023-08-21T04:13:10;102216.56;;;19.98;100.00
54882;BME280;40775;51.448;4.742;2023-08-21T04:15:37;102233.44;;;19.96;100.00
54882;BME280;40775;51.448;4.742;2023-08-21T04:18:05;102221.88;;;19.95;100.00
54882;BME280;40775;51.448;4.742;2023-08-21T04:20:32;102222.75;;;19.91;100.00
54882;BME280;40775;51.448;4.742;2023-08-21T04:22:59;102233.41;;;19.87;100.00
54882;BME280;40775;51.448;4.742;2023-08-21T04:25:26;102227.19;;;19.92;100.00
54882;BME280;40775;51.448;4.742;2023-08-21T04:27:53;102235.19;;;19.89;100.00
54882;BME280;40775;51.448;4.742;2023-08-21T04:30:20;102236.97;;;19.90;100.00
54882;BME280;40775;51.448;4.742;2023-08-21T04:32:48;102237.84;;;19.89;100.00
54882;BME280;40775;51.448;4.742;2023-08-21T04:35:15;102232.50;;;19.85;100.00
54882;BME280;40775;51.448;4.742;2023-08-21T04:37:47;102231.59;;;19.81;100.00
54882;BME280;40775;51.448;4.742;2023-08-21T04:40:14;102243.16;;;19.79;100.00
54882;BME280;40775;51.448;4.742;2023-08-21T04:42:42;102239.59;;;19.75;100.00
54882;BME280;40775;51.448;4.742;2023-08-21T04:45:09;102241.31;;;19.71;100.00
54882;BME280;40775;51.448;4.742;2023-08-21T04:47:36;102232.41;;;19.66;100.00
54882;BME280;40775;51.448;4.742;2023-08-21T04:50:03;102239.50;;;19.64;100.00
54882;BME280;40775;51.448;4.742;2023-08-21T04:52:31;102237.75;;;19.65;100.00
54882;BME280;40775;51.448;4.742;2023-08-21T04:54:58;102243.94;;;19.61;100.00
54882;BME280;40775;51.448;4.742;2023-08-21T04:57:25;102248.38;;;19.60;100.00
54882;BME280;40775;51.448;4.742;2023-08-21T04:59:51;102245.69;;;19.59;100.00
54882;BME280;40775;51.448;4.742;2023-08-21T05:02:18;102254.56;;;19.55;100.00
54882;BME280;40775;51.448;4.742;2023-08-21T05:04:45;102253.69;;;19.54;100.00
54882;BME280;40775;51.448;4.742;2023-08-21T05:07:12;102245.63;;;19.51;100.00
54882;BME280;40775;51.448;4.742;2023-08-21T05:09:39;102259.00;;;19.54;100.00
54882;BME280;40775;51.448;4.742;2023-08-21T05:12:08;102266.13;;;19.55;100.00
54882;BME280;40775;51.448;4.742;2023-08-21T05:14:35;102256.38;;;19.59;100.00
54882;BME280;40775;51.448;4.742;2023-08-21T05:17:03;102261.69;;;19.60;100.00
54882;BME280;40775;51.448;4.742;2023-08-21T05:19:30;102260.81;;;19.63;100.00
54882;BME280;40775;51.448;4.742;2023-08-21T05:21:57;102265.25;;;19.64;100.00
54882;BME280;40775;51.448;4.742;2023-08-21T05:24:24;102259.91;;;19.61;100.00
54882;BME280;40775;51.448;4.742;2023-08-21T05:26:51;102275.91;;;19.64;100.00
54882;BME280;40775;51.448;4.742;2023-08-21T05:29:18;102269.72;;;19.66;100.00
54882;BME280;40775;51.448;4.742;2023-08-21T05:31:45;102265.28;;;19.67;100.00
54882;BME280;40775;51.448;4.742;2023-08-21T05:34:12;102263.53;;;19.72;100.00
54882;BME280;40775;51.448;4.742;2023-08-21T05:36:39;102265.38;;;19.82;100.00
54882;BME280;40775;51.448;4.742;2023-08-21T05:39:08;102263.63;;;19.87;100.00
54882;BME280;40775;51.448;4.742;2023-08-21T05:41:35;102275.19;;;19.97;100.00
54882;BME280;40775;51.448;4.742;2023-08-21T05:44:02;102273.50;;;20.08;100.00
54882;BME280;40775;51.448;4.742;2023-08-21T05:46:29;102267.28;;;20.14;100.00
54882;BME280;40775;51.448;4.742;2023-08-21T05:48:56;102261.06;;;20.15;100.00
54882;BME280;40775;51.448;4.742;2023-08-21T05:51:25;102266.41;;;20.18;100.00
54882;BME280;40775;51.448;4.742;2023-08-21T05:53:52;102270.84;;;20.23;100.00
54882;BME280;40775;51.448;4.742;2023-08-21T05:56:18;102263.78;;;20.31;100.00
54882;BME280;40775;51.448;4.742;2023-08-21T05:58:45;102262.91;;;20.37;100.00
54882;BME280;40775;51.448;4.742;2023-08-21T06:01:12;102261.13;;;20.39;100.00
54882;BME280;40775;51.448;4.742;2023-08-21T06:03:39;102259.41;;;20.46;100.00
54882;BME280;40775;51.448;4.742;2023-08-21T06:06:06;102270.97;;;20.52;100.00
54882;BME280;40775;51.448;4.742;2023-08-21T06:08:34;102262.09;;;20.61;100.00
54882;BME280;40775;51.448;4.742;2023-08-21T06:11:00;102265.66;;;20.64;100.00
54882;BME280;40775;51.448;4.742;2023-08-21T06:13:28;102263.88;;;20.71;100.00
54882;BME280;40775;51.448;4.742;2023-08-21T06:15:54;102264.78;;;20.78;100.00
54882;BME280;40775;51.448;4.742;2023-08-21T06:18:22;102260.34;;;20.86;100.00
54882;BME280;40775;51.448;4.742;2023-08-21T06:20:49;102266.56;;;20.97;100.00
54882;BME280;40775;51.448;4.742;2023-08-21T06:23:20;102259.47;;;20.97;100.00
54882;BME280;40775;51.448;4.742;2023-08-21T06:25:49;102271.00;;;21.07;100.00
54882;BME280;40775;51.448;4.742;2023-08-21T06:28:16;102264.81;;;21.14;100.00
54882;BME280;40775;51.448;4.742;2023-08-21T06:30:43;102265.69;;;21.22;100.00
54882;BME280;40775;51.448;4.742;2023-08-21T06:33:10;102267.47;;;21.33;100.00
54882;BME280;40775;51.448;4.742;2023-08-21T06:35:38;102259.47;;;21.42;100.00
54882;BME280;40775;51.448;4.742;2023-08-21T06:38:05;102265.66;;;21.50;100.00
54882;BME280;40775;51.448;4.742;2023-08-21T06:40:32;102264.75;;;21.62;100.00
54882;BME280;40775;51.448;4.742;2023-08-21T06:42:59;102265.63;;;21.68;100.00
54882;BME280;40775;51.448;4.742;2023-08-21T06:45:26;102268.28;;;21.77;100.00
54882;BME280;40775;51.448;4.742;2023-08-21T06:47:57;102265.56;;;21.86;100.00
54882;BME280;40775;51.448;4.742;2023-08-21T06:50:24;102265.56;;;21.94;100.00
54882;BME280;40775;51.448;4.742;2023-08-21T06:52:51;102259.28;;;22.01;100.00
54882;BME280;40775;51.448;4.742;2023-08-21T06:55:19;102257.41;;;22.18;100.00
54882;BME280;40775;51.448;4.742;2023-08-21T06:57:46;102269.91;;;22.18;100.00
54882;BME280;40775;51.448;4.742;2023-08-21T07:00:13;102268.06;;;22.31;100.00
54882;BME280;40775;51.448;4.742;2023-08-21T07:02:40;102259.97;;;22.40;100.00
54882;BME280;40775;51.448;4.742;2023-08-21T07:05:07;102268.72;;;22.68;100.00
54882;BME280;40775;51.448;4.742;2023-08-21T07:07:38;102256.31;;;22.58;100.00
54882;BME280;40775;51.448;4.742;2023-08-21T07:10:05;102255.34;;;22.65;100.00
54882;BME280;40775;51.448;4.742;2023-08-21T07:12:32;102249.94;;;22.81;100.00
54882;BME280;40775;51.448;4.742;2023-08-21T07:14:59;102249.00;;;22.84;100.00
54882;BME280;40775;51.448;4.742;2023-08-21T07:17:26;102262.38;;;22.87;100.00
54882;BME280;40775;51.448;4.742;2023-08-21T07:19:53;102254.22;;;22.99;100.00
54882;BME280;40775;51.448;4.742;2023-08-21T07:22:20;102261.34;;;23.05;100.00
54882;BME280;40775;51.448;4.742;2023-08-21T07:24:47;102264.78;;;23.16;100.00
54882;BME280;40775;51.448;4.742;2023-08-21T07:27:15;102266.47;;;23.29;100.00
54882;BME280;40775;51.448;4.742;2023-08-21T07:29:42;102266.44;;;23.34;100.00
54882;BME280;40775;51.448;4.742;2023-08-21T07:32:09;102268.09;;;23.44;100.00
54882;BME280;40775;51.448;4.742;2023-08-21T07:34:36;102260.94;;;23.46;100.00
54882;BME280;40775;51.448;4.742;2023-08-21T07:37:03;102273.44;;;23.46;100.00
54882;BME280;40775;51.448;4.742;2023-08-21T07:39:30;102277.84;;;23.51;100.00
54882;BME280;40775;51.448;4.742;2023-08-21T07:41:57;102266.97;;;23.69;100.00
54882;BME280;40775;51.448;4.742;2023-08-21T07:44:24;102265.00;;;23.82;100.00
54882;BME280;40775;51.448;4.742;2023-08-21T07:46:51;102266.78;;;23.86;100.00
54882;BME280;40775;51.448;4.742;2023-08-21T07:51:45;102273.59;;;24.10;100.00
54882;BME280;40775;51.448;4.742;2023-08-21T07:54:12;102275.41;;;24.08;100.00
54882;BME280;40775;51.448;4.742;2023-08-21T07:56:39;102276.25;;;24.15;100.00
54882;BME280;40775;51.448;4.742;2023-08-21T07:59:07;102266.25;;;24.26;100.00
54882;BME280;40775;51.448;4.742;2023-08-21T08:01:34;102267.03;;;24.35;100.00
54882;BME280;40775;51.448;4.742;2023-08-21T08:04:01;102267.63;;;24.56;100.00
54882;BME280;40775;51.448;4.742;2023-08-21T08:06:29;102272.84;;;24.68;100.00
54882;BME280;40775;51.448;4.742;2023-08-21T08:08:56;102277.41;;;24.60;100.00
54882;BME280;40775;51.448;4.742;2023-08-21T08:11:23;102275.56;;;24.63;100.00
54882;BME280;40775;51.448;4.742;2023-08-21T08:13:50;102274.50;;;24.75;100.00
54882;BME280;40775;51.448;4.742;2023-08-21T08:16:17;102283.31;;;24.83;100.00
54882;BME280;40775;51.448;4.742;2023-08-21T08:18:44;102271.78;;;24.77;100.00
54882;BME280;40775;51.448;4.742;2023-08-21T08:21:11;102276.00;;;24.91;100.00
54882;BME280;40775;51.448;4.742;2023-08-21T08:23:38;102273.13;;;25.07;100.00
54882;BME280;40775;51.448;4.742;2023-08-21T08:26:05;102269.69;;;24.99;100.00
54882;BME280;40775;51.448;4.742;2023-08-21T08:28:32;102260.69;;;25.01;100.00
54882;BME280;40775;51.448;4.742;2023-08-21T08:30:59;102270.50;;;25.02;100.00
54882;BME280;40775;51.448;4.742;2023-08-21T08:33:27;102277.47;;;25.14;100.00
54882;BME280;40775;51.448;4.742;2023-08-21T08:35:54;102271.16;;;25.16;100.00
54882;BME280;40775;51.448;4.742;2023-08-21T08:38:21;102273.91;;;25.13;100.00
54882;BME280;40775;51.448;4.742;2023-08-21T08:40:49;102270.06;;;25.28;100.00
54882;BME280;40775;51.448;4.742;2023-08-21T08:43:18;102274.53;;;25.29;100.00
54882;BME280;40775;51.448;4.742;2023-08-21T08:45:47;102279.41;;;25.55;100.00
54882;BME280;40775;51.448;4.742;2023-08-21T08:48:16;102261.19;;;25.71;100.00
54882;BME280;40775;51.448;4.742;2023-08-21T08:50:45;102264.81;;;25.70;100.00
54882;BME280;40775;51.448;4.742;2023-08-21T08:53:13;102269.25;;;25.71;100.00
54882;BME280;40775;51.448;4.742;2023-08-21T08:55:44;102266.38;;;25.81;100.00
54882;BME280;40775;51.448;4.742;2023-08-21T08:58:12;102262.78;;;25.82;100.00
54882;BME280;40775;51.448;4.742;2023-08-21T09:00:39;102264.22;;;25.97;100.00
54882;BME280;40775;51.448;4.742;2023-08-21T09:03:06;102257.00;;;25.99;100.00
54882;BME280;40775;51.448;4.742;2023-08-21T09:05:34;102265.91;;;26.04;100.00
54882;BME280;40775;51.448;4.742;2023-08-21T09:08:12;102260.25;;;26.16;100.00
54882;BME280;40775;51.448;4.742;2023-08-21T09:10:41;102258.47;;;26.15;100.00
54882;BME280;40775;51.448;4.742;2023-08-21T09:13:18;102256.59;;;26.19;100.00
54882;BME280;40775;51.448;4.742;2023-08-21T09:15:48;102256.88;;;26.47;100.00
54882;BME280;40775;51.448;4.742;2023-08-21T09:18:16;102252.16;;;26.58;100.00
54882;BME280;40775;51.448;4.742;2023-08-21T09:20:43;102256.47;;;26.65;100.00
54882;BME280;40775;51.448;4.742;2023-08-21T09:23:18;102250.59;;;26.84;100.00
54882;BME280;40775;51.448;4.742;2023-08-21T09:25:47;102256.78;;;26.89;100.00
54882;BME280;40775;51.448;4.742;2023-08-21T09:28:19;102255.28;;;26.75;100.00
54882;BME280;40775;51.448;4.742;2023-08-21T09:33:24;102248.44;;;26.99;100.00
54882;BME280;40775;51.448;4.742;2023-08-21T09:35:53;102246.63;;;27.00;100.00
54882;BME280;40775;51.448;4.742;2023-08-21T09:38:21;102243.47;;;27.18;100.00
54882;BME280;40775;51.448;4.742;2023-08-21T09:40:53;102246.44;;;27.07;100.00
54882;BME280;40775;51.448;4.742;2023-08-21T09:43:22;102252.78;;;27.05;100.00
54882;BME280;40775;51.448;4.742;2023-08-21T09:45:52;102254.97;;;27.25;100.00
54882;BME280;40775;51.448;4.742;2023-08-21T09:48:22;102245.94;;;27.58;100.00
54882;BME280;40775;51.448;4.742;2023-08-21T09:50:53;102245.00;;;27.59;100.00
54882;BME280;40775;51.448;4.742;2023-08-21T09:53:22;102244.66;;;27.73;100.00
54882;BME280;40775;51.448;4.742;2023-08-21T09:55:53;102241.31;;;27.63;100.00
54882;BME280;40775;51.448;4.742;2023-08-21T09:58:21;102233.97;;;27.70;100.00
54882;BME280;40775;51.448;4.742;2023-08-21T10:00:49;102238.28;;;27.76;100.00
54882;BME280;40775;51.448;4.742;2023-08-21T10:03:21;102227.41;;;28.08;100.00
54882;BME280;40775;51.448;4.742;2023-08-21T10:05:50;102225.13;;;28.25;100.00
54882;BME280;40775;51.448;4.742;2023-08-21T10:08:24;102236.69;;;28.29;100.00
54882;BME280;40775;51.448;4.742;2023-08-21T10:10:52;102231.88;;;28.39;100.00
54882;BME280;40775;51.448;4.742;2023-08-21T10:13:20;102226.00;;;28.54;100.00
54882;BME280;40775;51.448;4.742;2023-08-21T10:15:48;102229.97;;;28.42;100.00
54882;BME280;40775;51.448;4.742;2023-08-21T10:18:34;102222.38;;;28.55;100.00
54882;BME280;40775;51.448;4.742;2023-08-21T10:21:20;102213.84;;;28.67;100.00
54882;BME280;40775;51.448;4.742;2023-08-21T10:23:50;102214.25;;;28.81;100.00
54882;BME280;40775;51.448;4.742;2023-08-21T10:26:22;102225.66;;;28.91;100.00
54882;BME280;40775;51.448;4.742;2023-08-21T10:28:59;102223.75;;;28.95;100.00
54882;BME280;40775;51.448;4.742;2023-08-21T10:31:40;102232.38;;;29.31;100.00
54882;BME280;40775;51.448;4.742;2023-08-21T10:34:12;102233.22;;;29.33;100.00
54882;BME280;40775;51.448;4.742;2023-08-21T10:39:28;102228.91;;;29.77;100.00
54882;BME280;40775;51.448;4.742;2023-08-21T10:42:02;102227.59;;;29.64;100.00
54882;BME280;40775;51.448;4.742;2023-08-21T10:47:19;102215.53;;;29.72;100.00
54882;BME280;40775;51.448;4.742;2023-08-21T10:50:02;102213.19;;;29.87;100.00
54882;BME280;40775;51.448;4.742;2023-08-21T10:52:34;102203.66;;;30.00;100.00
54882;BME280;40775;51.448;4.742;2023-08-21T10:55:03;102208.03;;;30.04;100.00
54882;BME280;40775;51.448;4.742;2023-08-21T10:57:32;102199.66;;;29.87;100.00
54882;BME280;40775;51.448;4.742;2023-08-21T11:00:14;102207.03;;;30.06;100.00
54882;BME280;40775;51.448;4.742;2023-08-21T11:02:48;102204.94;;;30.13;100.00
54882;BME280;40775;51.448;4.742;2023-08-21T11:05:16;102202.19;;;30.36;100.00
54882;BME280;40775;51.448;4.742;2023-08-21T11:07:46;102204.41;;;30.49;100.00
54882;BME280;40775;51.448;4.742;2023-08-21T11:10:16;102204.84;;;30.82;100.00
54882;BME280;40775;51.448;4.742;2023-08-21T11:12:55;102204.25;;;30.75;100.00
54882;BME280;40775;51.448;4.742;2023-08-21T11:15:25;102208.19;;;31.09;100.00
54882;BME280;40775;51.448;4.742;2023-08-21T11:18:02;102197.63;;;31.02;100.00
54882;BME280;40775;51.448;4.742;2023-08-21T11:20:34;102205.91;;;30.99;100.00
54882;BME280;40775;51.448;4.742;2023-08-21T11:23:06;102207.22;;;30.89;99.87
54882;BME280;40775;51.448;4.742;2023-08-21T11:25:38;102197.13;;;30.93;99.93
54882;BME280;40775;51.448;4.742;2023-08-21T11:28:05;102192.03;;;31.27;100.00
54882;BME280;40775;51.448;4.742;2023-08-21T11:30:33;102208.44;;;31.24;100.00
54882;BME280;40775;51.448;4.742;2023-08-21T11:33:12;102201.06;;;31.47;100.00
54882;BME280;40775;51.448;4.742;2023-08-21T11:35:41;102196.94;;;31.38;100.00
54882;BME280;40775;51.448;4.742;2023-08-21T11:38:19;102208.41;;;31.45;98.98
54882;BME280;40775;51.448;4.742;2023-08-21T11:41:02;102204.06;;;31.61;100.00
54882;BME280;40775;51.448;4.742;2023-08-21T11:43:39;102194.75;;;31.46;94.55
54882;BME280;40775;51.448;4.742;2023-08-21T11:46:09;102202.75;;;31.30;88.34
54882;BME280;40775;51.448;4.742;2023-08-21T11:48:41;102204.22;;;31.38;85.59
54882;BME280;40775;51.448;4.742;2023-08-21T11:51:09;102193.69;;;31.50;88.85
54882;BME280;40775;51.448;4.742;2023-08-21T11:53:41;102192.59;;;31.54;80.47
54882;BME280;40775;51.448;4.742;2023-08-21T11:56:12;102183.84;;;31.87;84.83
54882;BME280;40775;51.448;4.742;2023-08-21T11:58:44;102185.69;;;31.66;86.92
54882;BME280;40775;51.448;4.742;2023-08-21T12:01:19;102175.13;;;31.80;92.70
54882;BME280;40775;51.448;4.742;2023-08-21T12:03:47;102178.59;;;31.63;90.35
54882;BME280;40775;51.448;4.742;2023-08-21T12:06:22;102177.69;;;31.83;89.64
54882;BME280;40775;51.448;4.742;2023-08-21T12:08:50;102188.84;;;31.96;79.35
54882;BME280;40775;51.448;4.742;2023-08-21T12:11:18;102186.19;;;31.94;89.51
54882;BME280;40775;51.448;4.742;2023-08-21T12:13:45;102184.81;;;31.86;86.68
54882;BME280;40775;51.448;4.742;2023-08-21T12:16:12;102171.59;;;31.78;89.01
54882;BME280;40775;51.448;4.742;2023-08-21T12:18:39;102166.50;;;32.27;91.54
54882;BME280;40775;51.448;4.742;2023-08-21T12:21:05;102166.59;;;32.79;90.07
54882;BME280;40775;51.448;4.742;2023-08-21T12:23:34;102165.19;;;32.53;91.66
54882;BME280;40775;51.448;4.742;2023-08-21T12:26:01;102165.03;;;32.56;88.60
54882;BME280;40775;51.448;4.742;2023-08-21T12:28:28;102172.72;;;32.48;90.89
54882;BME280;40775;51.448;4.742;2023-08-21T12:30:55;102180.31;;;32.58;90.98
54882;BME280;40775;51.448;4.742;2023-08-21T12:33:22;102177.16;;;32.68;90.95
54882;BME280;40775;51.448;4.742;2023-08-21T12:35:51;102180.38;;;32.57;83.72
54882;BME280;40775;51.448;4.742;2023-08-21T12:38:18;102174.00;;;32.58;91.82
54882;BME280;40775;51.448;4.742;2023-08-21T12:40:45;102167.50;;;32.43;89.61
54882;BME280;40775;51.448;4.742;2023-08-21T12:43:12;102175.47;;;32.65;89.63
54882;BME280;40775;51.448;4.742;2023-08-21T12:45:39;102162.78;;;32.47;93.38
54882;BME280;40775;51.448;4.742;2023-08-21T12:48:06;102172.94;;;32.79;85.74
54882;BME280;40775;51.448;4.742;2023-08-21T12:50:33;102160.72;;;32.35;84.61
54882;BME280;40775;51.448;4.742;2023-08-21T12:53:00;102160.59;;;32.72;88.46
54882;BME280;40775;51.448;4.742;2023-08-21T12:55:28;102166.25;;;32.68;85.68
54882;BME280;40775;51.448;4.742;2023-08-21T12:57:56;102170.34;;;32.76;84.68
54882;BME280;40775;51.448;4.742;2023-08-21T13:00:23;102165.44;;;32.48;87.54
54882;BME280;40775;51.448;4.742;2023-08-21T13:02:50;102167.81;;;32.18;86.93